ADDS METAR Data INFO
IDs: Format: Raw Decoded Include TAF

Data at: 0258 UTC 21 Oct 2017

KJMS 210256Z AUTO 17012KT 10SM CLR 18/12 A2935 RMK AO2 SLP935 T01830117 50003
KJMS 210156Z AUTO 18016G27KT 10SM CLR 20/12 A2935 RMK AO2 PK WND 18029/0146 SLP936 T02000117
KJMS 210056Z AUTO 18023G29KT 10SM CLR 21/12 A2934 RMK AO2 PK WND 17035/0028 SLP934 T02110117
KJMS 202356Z AUTO 17016G27KT 10SM CLR 22/12 A2934 RMK AO2 PK WND 18027/2350 SLP932 T02170117 10228 20200 56013
KJMS 202256Z AUTO 17011KT 10SM CLR 21/11 A2935 RMK AO2 SLP936 T02110111
KJMS 202156Z AUTO 17014G22KT 10SM CLR 21/11 A2937 RMK AO2 PK WND 19035/2057 SLP943 T02060106
KJMS 202056Z AUTO 18022G31KT 10SM CLR 22/11 A2938 RMK AO2 PK WND 17036/2035 SLP946 T02220106 56022
KJMS 201956Z AUTO 18019G33KT 10SM CLR 22/10 A2939 RMK AO2 PK WND 17033/1953 SLP952 T02170100
KJMS 201856Z AUTO 17018G31KT 10SM CLR 22/10 A2942 RMK AO2 PK WND 17031/1852 SLP959 T02170100
KJMS 201756Z AUTO 17019G28KT 10SM CLR 21/10 A2945 RMK AO2 PK WND 18028/1752 SLP971 T02110100 10211 20106 58020
KJMS 201656Z AUTO 18013G24KT 10SM CLR 17/09 A2947 RMK AO2 PK WND 18028/1622 SLP982 T01720089
KJMS 201556Z AUTO 18018G27KT 10SM CLR 16/09 A2949 RMK AO2 PK WND 18029/1532 SLP986 T01610089
KJMS 201456Z AUTO 17016KT 10SM CLR 13/08 A2951 RMK AO2 SLP995 T01330083 58016
KJMS 201356Z AUTO 18018KT 10SM CLR 11/08 A2952 RMK AO2 SLP001 T01110078
KJMS 201256Z AUTO 18015KT 10SM CLR 11/08 A2954 RMK AO2 SLP006 T01060078
KJMS 201156Z AUTO 17016KT 10SM CLR 11/08 A2955 RMK AO2 SLP009 T01060078 10106 20083 56017
KJMS 201056Z AUTO 18015KT 10SM CLR 11/08 A2957 RMK AO2 SLP013 T01060078
KJMS 200956Z AUTO 17012KT 10SM CLR 10/07 A2959 RMK AO2 SLP018 T01000072
KJMS 200856Z AUTO 17010KT 10SM CLR 10/07 A2961 RMK AO2 SLP025 T01000067 58019
KJMS 200756Z AUTO 17010KT 10SM CLR 09/06 A2963 RMK AO2 SLP032 T00890061
KJMS 200656Z AUTO 18009KT 10SM CLR 10/06 A2965 RMK AO2 SLP039 T01000061
KJMS 200556Z AUTO 17006KT 10SM CLR 09/05 A2967 RMK AO2 SLP047 T00890050 10156 20072 402330000 58017
KJMS 200456Z AUTO 16004KT 10SM CLR 08/04 A2969 RMK AO2 SLP055 T00780039
KJMS 200356Z AUTO 18003KT 10SM CLR 10/04 A2971 RMK AO2 SLP065 T01000044
KJMS 200256Z AUTO 17008KT 10SM CLR 11/05 A2972 RMK AO2 SLP069 T01110050 56006
KJMS 200156Z AUTO 18007KT 10SM CLR 12/05 A2973 RMK AO2 SLP072 T01220050
KJMS 200056Z AUTO 17008KT 10SM CLR 13/05 A2973 RMK AO2 SLP076 T01280050
KJMS 192356Z AUTO 16005KT 10SM CLR 16/05 A2974 RMK AO2 SLP078 T01560050 10233 20156 58000
KJMS 192256Z AUTO 18008KT 10SM CLR 21/06 A2974 RMK AO2 SLP077 T02060056
KJMS 192156Z AUTO 19010KT 10SM CLR 22/04 A2974 RMK AO2 SLP075 T02220044
KJMS 192056Z AUTO 20010KT 10SM CLR 23/04 A2974 RMK AO2 SLP074 T02330039 56016
KJMS 191956Z AUTO 20012KT 10SM CLR 23/03 A2974 RMK AO2 SLP076 T02280033
KJMS 191856Z AUTO 22010KT 10SM CLR 22/03 A2976 RMK AO2 SLP082 T02170028
KJMS 191756Z AUTO 23013KT 10SM CLR 20/03 A2979 RMK AO2 SLP091 T02000028 10200 20022 58005
KJMS 191656Z AUTO 22011KT 10SM CLR 18/03 A2980 RMK AO2 SLP094 T01780028
KJMS 191556Z AUTO 21010KT 10SM CLR 14/03 A2980 RMK AO2 SLP099 T01390028